createdAt,value
2019-04-11T00:00:55.494Z,17.01
2019-04-11T00:01:58.457Z,17.02
2019-04-11T00:03:01.082Z,17.01
2019-04-11T00:04:03.960Z,17.01
2019-04-11T00:05:06.458Z,17.00
2019-04-11T00:06:09.567Z,17.02
2019-04-11T00:07:12.067Z,16.99
2019-04-11T00:08:14.329Z,17.00
2019-04-11T00:09:18.970Z,17.01
2019-04-11T00:10:21.311Z,16.99
2019-04-11T00:11:23.941Z,17.00
2019-04-11T00:12:26.340Z,17.00
2019-04-11T00:13:33.363Z,17.00
2019-04-11T00:14:35.841Z,17.00
2019-04-11T00:15:38.223Z,17.00
2019-04-11T00:16:41.427Z,16.99
2019-04-11T00:17:43.913Z,17.00
2019-04-11T00:18:47.167Z,17.00
2019-04-11T00:19:49.490Z,16.99
2019-04-11T00:20:52.736Z,17.00
2019-04-11T00:21:55.285Z,16.99
2019-04-11T00:22:57.719Z,17.00
2019-04-11T00:24:00.728Z,16.99
2019-04-11T00:25:03.217Z,16.99
2019-04-11T00:26:06.491Z,16.98
2019-04-11T00:27:08.794Z,16.99
2019-04-11T00:28:10.991Z,17.00
2019-04-11T00:29:14.271Z,16.98
2019-04-11T00:30:17.776Z,16.98
2019-04-11T00:31:20.969Z,16.99
2019-04-11T00:32:23.318Z,16.98
2019-04-11T00:33:26.459Z,16.99
2019-04-11T00:34:29.043Z,16.99
2019-04-11T00:35:31.539Z,16.98
2019-04-11T00:36:34.600Z,16.98
2019-04-11T00:37:37.107Z,16.98
2019-04-11T00:38:40.217Z,16.98
2019-04-11T00:39:43.644Z,16.99
2019-04-11T00:40:46.020Z,16.98
2019-04-11T00:41:48.349Z,16.98
2019-04-11T00:42:50.567Z,16.98
2019-04-11T00:43:52.734Z,16.99
2019-04-11T00:44:55.005Z,16.98
2019-04-11T00:45:58.862Z,16.98
2019-04-11T00:47:01.093Z,16.99
2019-04-11T00:48:03.862Z,16.97
2019-04-11T00:49:06.302Z,16.97
2019-04-11T00:50:08.446Z,16.97
2019-04-11T00:51:11.806Z,16.97
2019-04-11T00:52:14.305Z,16.97
2019-04-11T00:53:16.491Z,16.97
2019-04-11T00:54:18.742Z,16.97
2019-04-11T00:55:21.757Z,16.96
2019-04-11T00:56:24.227Z,16.97
2019-04-11T00:57:26.475Z,16.97
2019-04-11T00:58:29.684Z,16.96
2019-04-11T00:59:32.224Z,16.96
2019-04-11T01:00:36.632Z,16.97
2019-04-11T01:01:38.377Z,16.96
2019-04-11T01:02:42.197Z,16.96
2019-04-11T01:03:45.424Z,16.97
2019-04-11T01:04:48.768Z,16.96
2019-04-11T01:05:51.964Z,16.97
2019-04-11T01:06:54.379Z,16.97
2019-04-11T01:07:57.669Z,16.97
2019-04-11T01:09:00.039Z,16.96
2019-04-11T01:10:02.368Z,16.95
2019-04-11T01:11:05.908Z,16.96
2019-04-11T01:12:08.128Z,16.96
2019-04-11T01:13:11.236Z,16.96
2019-04-11T01:14:13.458Z,16.96
2019-04-11T01:15:19.505Z,16.95
2019-04-11T01:16:27.013Z,16.96
2019-04-11T01:17:29.517Z,16.95
2019-04-11T01:18:31.917Z,16.96
2019-04-11T01:19:35.114Z,16.96
2019-04-11T01:20:37.732Z,16.94
2019-04-11T01:21:40.419Z,16.95
2019-04-11T01:22:42.711Z,16.95
2019-04-11T01:23:44.945Z,16.95
2019-04-11T01:24:48.106Z,16.95
2019-04-11T01:25:50.628Z,16.95
2019-04-11T01:26:53.775Z,16.95
2019-04-11T01:27:56.447Z,16.96
2019-04-11T01:28:58.862Z,16.95
2019-04-11T01:30:02.122Z,16.95
2019-04-11T01:31:09.687Z,16.96
2019-04-11T01:32:12.114Z,16.96
2019-04-11T01:33:14.348Z,16.95
2019-04-11T01:34:16.550Z,16.95
2019-04-11T01:35:19.308Z,16.94
2019-04-11T01:36:22.681Z,16.93
2019-04-11T01:37:25.934Z,16.95
2019-04-11T01:38:28.422Z,16.94
2019-04-11T01:39:49.713Z,16.94
2019-04-11T01:40:51.969Z,16.93
2019-04-11T01:41:55.171Z,16.93
2019-04-11T01:42:57.663Z,16.94
2019-04-11T01:44:03.704Z,16.94
2019-04-11T01:45:05.217Z,16.93
2019-04-11T01:46:07.786Z,16.94
2019-04-11T01:47:12.938Z,16.93
2019-04-11T01:48:50.063Z,16.94
2019-04-11T01:49:52.471Z,16.92
2019-04-11T01:50:54.666Z,16.94
2019-04-11T01:51:58.081Z,16.93
2019-04-11T01:53:00.566Z,16.92
2019-04-11T01:54:03.632Z,16.93
2019-04-11T01:55:06.072Z,16.93
2019-04-11T01:56:09.368Z,16.93
2019-04-11T01:57:11.797Z,16.92
2019-04-11T01:58:14.241Z,16.92
2019-04-11T01:59:19.606Z,16.92
2019-04-11T02:00:46.867Z,16.93
2019-04-11T02:02:08.015Z,16.92
2019-04-11T02:03:11.888Z,16.92
2019-04-11T02:04:21.616Z,16.92
2019-04-11T02:05:27.166Z,16.92
2019-04-11T02:06:29.879Z,16.91
2019-04-11T02:07:32.166Z,16.91
2019-04-11T02:08:35.477Z,16.91
2019-04-11T02:09:38.016Z,16.92
2019-04-11T02:10:41.231Z,16.91
2019-04-11T02:11:43.547Z,16.91
2019-04-11T02:12:45.740Z,16.92
2019-04-11T02:13:48.211Z,16.90
2019-04-11T02:14:50.475Z,16.91
2019-04-11T02:15:55.433Z,16.90
2019-04-11T02:16:57.100Z,16.92
2019-04-11T02:17:59.405Z,16.91
2019-04-11T02:19:01.702Z,16.90
2019-04-11T02:20:04.859Z,16.91
2019-04-11T02:21:07.037Z,16.91
2019-04-11T02:22:46.546Z,16.91
2019-04-11T02:24:00.153Z,16.91
2019-04-11T02:25:12.750Z,16.91
2019-04-11T02:26:33.432Z,16.91
2019-04-11T02:27:36.415Z,16.90
2019-04-11T02:28:39.027Z,16.91
2019-04-11T02:29:41.233Z,16.90
2019-04-11T02:30:48.313Z,16.91
2019-04-11T02:31:50.736Z,16.90
2019-04-11T02:32:53.605Z,16.91
2019-04-11T02:33:57.370Z,16.90
2019-04-11T02:35:01.945Z,16.90
2019-04-11T02:36:05.088Z,16.89
2019-04-11T02:37:09.143Z,16.90
2019-04-11T02:38:12.576Z,16.90
2019-04-11T02:39:19.530Z,16.90
2019-04-11T02:40:20.158Z,16.89
2019-04-11T02:41:22.919Z,16.89
2019-04-11T02:42:25.612Z,16.90
2019-04-11T02:43:29.558Z,16.89
2019-04-11T02:44:45.446Z,16.89
2019-04-11T02:45:46.715Z,16.89
2019-04-11T02:46:47.562Z,16.88
2019-04-11T02:47:45.788Z,16.89
2019-04-11T02:48:47.401Z,16.89
2019-04-11T02:49:49.661Z,16.90
2019-04-11T02:50:51.947Z,16.90
2019-04-11T02:51:55.977Z,16.89
2019-04-11T02:52:58.556Z,16.89
2019-04-11T02:54:02.226Z,16.88
2019-04-11T02:55:05.764Z,16.89
2019-04-11T02:56:11.141Z,16.89
2019-04-11T02:57:13.966Z,16.88
2019-04-11T02:58:20.584Z,16.89
2019-04-11T02:59:22.958Z,16.88
2019-04-11T03:00:26.782Z,16.88
2019-04-11T03:01:29.046Z,16.89
2019-04-11T03:02:32.591Z,16.88
2019-04-11T03:03:34.959Z,16.88
2019-04-11T03:04:37.231Z,16.87
2019-04-11T03:05:39.646Z,16.88
2019-04-11T03:06:43.671Z,16.87
2019-04-11T03:07:45.908Z,16.88
2019-04-11T03:08:48.981Z,16.87
2019-04-11T03:09:53.365Z,16.88
2019-04-11T03:10:56.110Z,16.87
2019-04-11T03:11:59.536Z,16.88
2019-04-11T03:13:02.855Z,16.87
2019-04-11T03:14:05.325Z,16.88
2019-04-11T03:15:25.741Z,16.87
2019-04-11T03:16:28.116Z,16.87
2019-04-11T03:17:21.354Z,16.87
2019-04-11T03:18:40.904Z,16.86
2019-04-11T03:19:37.635Z,16.87
2019-04-11T03:20:34.515Z,16.86
2019-04-11T03:21:33.024Z,16.87
2019-04-11T03:22:34.948Z,16.87
2019-04-11T03:23:37.488Z,16.86
2019-04-11T03:24:40.642Z,16.86
2019-04-11T03:25:42.911Z,16.86
2019-04-11T03:26:46.182Z,16.86
2019-04-11T03:27:49.477Z,16.87
2019-04-11T03:28:56.585Z,16.85
2019-04-11T03:29:57.909Z,16.87
2019-04-11T03:31:37.482Z,16.87
2019-04-11T03:32:36.905Z,16.87
2019-04-11T03:35:06.241Z,16.86
2019-04-11T03:37:50.272Z,16.86
2019-04-11T03:38:46.667Z,16.86
2019-04-11T03:39:50.851Z,16.84
2019-04-11T03:40:50.129Z,16.85
2019-04-11T03:41:56.044Z,16.86
2019-04-11T03:42:59.818Z,16.84
2019-04-11T03:43:58.214Z,16.86
2019-04-11T03:45:18.849Z,16.87
2019-04-11T03:46:15.852Z,16.85
2019-04-11T03:47:18.053Z,16.84
2019-04-11T03:48:20.499Z,16.84
2019-04-11T03:49:20.656Z,16.84
2019-04-11T03:50:16.605Z,16.84
2019-04-11T03:51:14.980Z,16.84
2019-04-11T03:52:17.354Z,16.84
2019-04-11T03:53:21.499Z,16.83
2019-04-11T03:54:25.136Z,16.85
2019-04-11T03:55:28.387Z,16.83
2019-04-11T03:56:32.976Z,16.83
2019-04-11T03:57:35.330Z,16.83
2019-04-11T03:58:39.528Z,16.84
2019-04-11T03:59:41.389Z,16.83
2019-04-11T04:00:44.555Z,16.84
2019-04-11T04:01:48.731Z,16.84
2019-04-11T04:02:52.453Z,16.84
2019-04-11T04:03:55.599Z,16.83
2019-04-11T04:04:59.218Z,16.83
2019-04-11T04:06:01.948Z,16.83
2019-04-11T04:07:04.930Z,16.83
2019-04-11T04:08:08.727Z,16.83
2019-04-11T04:09:12.955Z,16.82
2019-04-11T04:10:15.868Z,16.82
2019-04-11T04:11:24.894Z,16.82
2019-04-11T04:12:27.291Z,16.82
2019-04-11T04:13:31.829Z,16.82
2019-04-11T04:14:46.572Z,16.82
2019-04-11T04:16:12.015Z,16.82
2019-04-11T04:17:23.602Z,16.81
2019-04-11T04:18:43.736Z,16.80
2019-04-11T04:20:08.831Z,16.82
2019-04-11T04:21:26.560Z,16.82
2019-04-11T04:22:35.481Z,16.81
2019-04-11T04:23:41.099Z,16.81
2019-04-11T04:24:45.489Z,16.81
2019-04-11T04:25:47.431Z,16.80
2019-04-11T04:26:50.285Z,16.80
2019-04-11T04:27:54.673Z,16.81
2019-04-11T04:28:57.777Z,16.80
2019-04-11T04:30:02.987Z,16.80
2019-04-11T04:31:04.609Z,16.80
2019-04-11T04:32:08.243Z,16.80
2019-04-11T04:33:12.387Z,16.81
2019-04-11T04:34:15.467Z,16.80
2019-04-11T04:35:21.031Z,16.80
2019-04-11T04:36:22.986Z,16.80
2019-04-11T04:37:26.859Z,16.81
2019-04-11T04:38:29.589Z,16.81
2019-04-11T04:39:32.094Z,16.80
2019-04-11T04:40:50.064Z,16.80
2019-04-11T04:41:45.754Z,16.80
2019-04-11T04:42:47.717Z,16.80
2019-04-11T04:43:48.094Z,16.80
2019-04-11T04:44:50.978Z,16.79
2019-04-11T04:46:08.492Z,16.80
2019-04-11T04:47:10.646Z,16.79
2019-04-11T04:48:04.502Z,16.79
2019-04-11T04:49:04.932Z,16.79
2019-04-11T04:50:08.778Z,16.79
2019-04-11T04:51:13.281Z,16.78
2019-04-11T04:52:16.311Z,16.79
2019-04-11T04:53:20.501Z,16.79
2019-04-11T04:54:23.960Z,16.78
2019-04-11T04:55:28.030Z,16.79
2019-04-11T04:56:32.262Z,16.79
2019-04-11T04:57:35.827Z,16.79
2019-04-11T04:58:39.820Z,16.79
2019-04-11T04:59:42.548Z,16.79
2019-04-11T05:00:45.633Z,16.79
2019-04-11T05:01:48.360Z,16.79
2019-04-11T05:02:52.169Z,16.78
2019-04-11T05:03:56.260Z,16.79
2019-04-11T05:04:58.885Z,16.76
2019-04-11T05:06:03.408Z,16.81
2019-04-11T05:07:05.402Z,16.87
2019-04-11T05:08:08.387Z,16.90
2019-04-11T05:09:12.630Z,16.93
2019-04-11T05:10:15.515Z,16.96
2019-04-11T05:11:18.039Z,17.00
2019-04-11T05:12:20.684Z,17.00
2019-04-11T05:13:23.954Z,17.02
2019-04-11T05:14:27.504Z,17.02
2019-04-11T05:15:30.133Z,17.03
2019-04-11T05:16:33.375Z,17.03
2019-04-11T05:17:36.330Z,17.03
2019-04-11T05:18:39.700Z,17.02
2019-04-11T05:19:42.438Z,17.02
2019-04-11T05:20:44.733Z,17.04
2019-04-11T05:21:47.817Z,17.08
2019-04-11T05:22:51.223Z,17.04
2019-04-11T05:23:55.033Z,17.03
2019-04-11T05:25:01.388Z,16.99
2019-04-11T05:26:01.655Z,16.97
2019-04-11T05:27:04.183Z,16.95
2019-04-11T05:28:06.568Z,16.92
2019-04-11T05:29:11.177Z,16.91
2019-04-11T05:30:14.565Z,16.89
2019-04-11T05:31:16.865Z,16.88
2019-04-11T05:32:19.739Z,16.88
2019-04-11T05:33:22.941Z,16.87
2019-04-11T05:34:25.818Z,16.86
2019-04-11T05:35:28.186Z,16.85
2019-04-11T05:36:30.470Z,16.84
2019-04-11T05:37:33.328Z,16.84
2019-04-11T05:38:35.966Z,16.85
2019-04-11T05:39:38.216Z,16.84
2019-04-11T05:40:40.590Z,16.83
2019-04-11T05:41:46.653Z,16.83
2019-04-11T05:42:50.983Z,16.82
2019-04-11T05:43:51.483Z,16.82
2019-04-11T05:44:54.706Z,16.83
2019-04-11T05:45:58.224Z,16.82
2019-04-11T05:47:02.603Z,16.82
2019-04-11T05:48:05.733Z,16.81
2019-04-11T05:49:13.481Z,16.82
2019-04-11T05:50:34.070Z,16.82
2019-04-11T05:51:40.518Z,16.82
2019-04-11T05:52:40.376Z,16.81
2019-04-11T05:53:43.708Z,16.81
2019-04-11T05:54:49.756Z,16.80
2019-04-11T05:55:53.163Z,16.81
2019-04-11T05:57:01.258Z,16.81
2019-04-11T05:58:08.548Z,16.81
2019-04-11T05:59:17.199Z,16.80
2019-04-11T06:00:24.867Z,16.80
2019-04-11T06:01:34.163Z,16.80
2019-04-11T06:02:41.968Z,16.81
2019-04-11T06:03:45.494Z,16.80
2019-04-11T06:04:55.915Z,16.80
2019-04-11T06:06:13.222Z,16.80
2019-04-11T06:07:25.139Z,16.79
2019-04-11T06:08:30.198Z,16.80
2019-04-11T06:09:35.323Z,16.79
2019-04-11T06:10:57.214Z,16.80
2019-04-11T06:12:25.422Z,16.80
2019-04-11T06:13:37.849Z,16.80
2019-04-11T06:15:05.958Z,16.79
2019-04-11T06:16:08.475Z,16.80
2019-04-11T06:17:14.289Z,16.79
2019-04-11T06:18:44.698Z,16.80
2019-04-11T06:20:25.167Z,16.80
2019-04-11T06:21:31.673Z,16.79
2019-04-11T06:22:35.965Z,16.80
2019-04-11T06:23:57.114Z,16.79
2019-04-11T06:25:35.862Z,16.79
2019-04-11T06:26:45.031Z,16.79
2019-04-11T06:27:50.531Z,16.79
2019-04-11T06:28:56.900Z,16.79
2019-04-11T06:30:36.749Z,16.79
2019-04-11T06:31:49.540Z,16.79
2019-04-11T06:33:10.140Z,16.79
2019-04-11T06:34:13.381Z,16.78
2019-04-11T06:35:33.928Z,16.78
2019-04-11T06:36:55.131Z,16.79
2019-04-11T06:38:32.430Z,16.78
2019-04-11T06:39:49.494Z,16.78
2019-04-11T06:41:19.721Z,16.79
2019-04-11T06:42:31.726Z,16.78
2019-04-11T06:43:42.611Z,16.78
2019-04-11T06:45:13.498Z,16.78
2019-04-11T06:46:33.449Z,16.78
2019-04-11T06:47:54.621Z,16.78
2019-04-11T06:49:04.396Z,16.78
2019-04-11T06:50:35.443Z,16.77
2019-04-11T06:51:46.349Z,16.78
2019-04-11T06:52:48.810Z,16.77
2019-04-11T06:54:10.080Z,16.78
2019-04-11T06:55:43.331Z,16.77
2019-04-11T06:56:47.567Z,16.78
2019-04-11T06:57:50.542Z,16.79
2019-04-11T06:58:56.750Z,16.78
2019-04-11T06:59:59.082Z,16.78
2019-04-11T07:01:05.511Z,16.76
2019-04-11T07:02:20.277Z,16.77
2019-04-11T07:03:28.542Z,16.77
2019-04-11T07:04:50.075Z,16.78
2019-04-11T07:05:53.149Z,16.78
2019-04-11T07:06:56.451Z,16.77
2019-04-11T07:07:59.800Z,16.77
2019-04-11T07:09:24.432Z,16.76
2019-04-11T07:10:32.475Z,16.77
2019-04-11T07:11:44.813Z,16.78
2019-04-11T07:12:59.362Z,16.78
2019-04-11T07:14:18.731Z,16.78
2019-04-11T07:15:23.464Z,16.78
2019-04-11T07:16:25.875Z,16.78
2019-04-11T07:17:45.948Z,16.76
2019-04-11T07:19:06.033Z,16.78
2019-04-11T07:20:37.764Z,16.76
2019-04-11T07:21:40.085Z,16.78
2019-04-11T07:23:00.053Z,16.77
2019-04-11T07:24:20.318Z,16.76
2019-04-11T07:25:45.136Z,16.78
2019-04-11T07:26:52.393Z,16.76
2019-04-11T07:28:03.696Z,16.76
2019-04-11T07:29:25.768Z,16.76
2019-04-11T07:30:47.298Z,16.76
2019-04-11T07:32:13.559Z,16.78
2019-04-11T07:33:35.427Z,16.77
2019-04-11T07:34:56.541Z,16.77
2019-04-11T07:36:16.745Z,16.78
2019-04-11T07:37:47.566Z,16.76
2019-04-11T07:38:54.427Z,16.76
2019-04-11T07:40:26.633Z,16.76
2019-04-11T07:41:47.787Z,16.76
2019-04-11T07:43:08.145Z,16.76
2019-04-11T07:44:08.449Z,16.77
2019-04-11T07:45:15.832Z,16.77
2019-04-11T07:46:36.054Z,16.76
2019-04-11T07:47:43.919Z,16.77
2019-04-11T07:48:46.877Z,16.77
2019-04-11T07:49:51.150Z,16.78
2019-04-11T07:50:55.219Z,16.78
2019-04-11T07:52:00.342Z,16.76
2019-04-11T07:53:03.300Z,16.77
2019-04-11T07:54:11.607Z,16.78
2019-04-11T07:55:13.935Z,16.78
2019-04-11T07:56:30.859Z,16.76
2019-04-11T07:57:38.874Z,16.77
2019-04-11T07:58:45.811Z,16.75
2019-04-11T08:00:09.851Z,16.76
2019-04-11T08:01:29.448Z,16.78
2019-04-11T08:03:09.921Z,16.77
2019-04-11T08:04:38.640Z,16.77
2019-04-11T08:06:03.045Z,16.76
2019-04-11T08:07:30.502Z,16.76
2019-04-11T08:08:51.739Z,16.78
2019-04-11T08:10:05.886Z,16.76
2019-04-11T08:11:15.649Z,16.76
2019-04-11T08:12:27.636Z,16.76
2019-04-11T08:13:34.705Z,16.76
2019-04-11T08:15:02.975Z,16.76
2019-04-11T08:16:26.679Z,16.76
2019-04-11T08:17:42.302Z,16.76
2019-04-11T08:19:05.544Z,16.75
2019-04-11T08:20:26.034Z,16.76
2019-04-11T08:21:56.780Z,16.75
2019-04-11T08:23:05.603Z,16.75
2019-04-11T08:24:10.637Z,16.75
2019-04-11T08:25:31.435Z,16.75
2019-04-11T08:26:51.270Z,16.75
2019-04-11T08:28:02.608Z,16.75
2019-04-11T08:29:09.151Z,16.76
2019-04-11T08:30:06.631Z,16.76
2019-04-11T08:31:21.985Z,16.76
2019-04-11T08:32:44.545Z,16.75
2019-04-11T08:33:46.842Z,16.74
2019-04-11T08:34:57.578Z,16.75
2019-04-11T08:36:22.082Z,16.75
2019-04-11T08:37:52.500Z,16.74
2019-04-11T08:38:54.736Z,16.75
2019-04-11T08:39:57.892Z,16.75
2019-04-11T08:41:23.122Z,16.75
2019-04-11T08:42:44.390Z,16.74
2019-04-11T08:43:47.665Z,16.74
2019-04-11T08:44:52.226Z,16.74
2019-04-11T08:45:58.543Z,16.75
2019-04-11T08:47:05.110Z,16.74
2019-04-11T08:48:08.723Z,16.75
2019-04-11T08:49:19.766Z,16.74
2019-04-11T08:50:26.168Z,16.75
2019-04-11T08:51:29.391Z,16.74
2019-04-11T08:52:44.500Z,16.74
2019-04-11T08:54:04.917Z,16.74
2019-04-11T08:55:12.169Z,16.75
2019-04-11T08:56:15.127Z,16.75
2019-04-11T08:57:29.042Z,16.75
2019-04-11T08:58:49.068Z,16.75
2019-04-11T09:00:22.435Z,16.75
2019-04-11T09:01:24.939Z,16.75
2019-04-11T09:02:35.357Z,16.75
2019-04-11T09:03:58.217Z,16.75
2019-04-11T09:05:13.603Z,16.75
2019-04-11T09:06:17.328Z,16.76
2019-04-11T09:07:22.257Z,16.75
2019-04-11T09:09:02.822Z,16.74
2019-04-11T09:10:40.054Z,16.75
2019-04-11T09:11:54.077Z,16.75
2019-04-11T09:13:02.932Z,16.75
2019-04-11T09:14:24.311Z,16.74
2019-04-11T09:15:51.643Z,16.75
2019-04-11T09:17:12.794Z,16.76
2019-04-11T09:18:15.346Z,16.75
2019-04-11T09:19:25.124Z,16.75
2019-04-11T09:20:45.599Z,16.76
2019-04-11T09:22:13.197Z,16.75
2019-04-11T09:23:18.246Z,16.75
2019-04-11T09:24:43.127Z,16.75
2019-04-11T09:26:03.623Z,16.76
2019-04-11T09:27:24.782Z,16.75
2019-04-11T09:28:33.474Z,16.75
2019-04-11T09:29:40.267Z,16.76
2019-04-11T09:31:01.135Z,16.75
2019-04-11T09:32:22.379Z,16.75
2019-04-11T09:33:42.042Z,16.76
2019-04-11T09:34:54.460Z,16.76
2019-04-11T09:35:57.611Z,16.75
2019-04-11T09:37:20.276Z,16.75
2019-04-11T09:38:24.281Z,16.76
2019-04-11T09:39:44.132Z,16.76
2019-04-11T09:41:03.977Z,16.76
2019-04-11T09:42:26.139Z,16.76
2019-04-11T09:43:30.054Z,16.76
2019-04-11T09:44:49.124Z,16.76
2019-04-11T09:46:06.194Z,16.76
2019-04-11T09:47:26.305Z,16.78
2019-04-11T09:48:54.574Z,16.77
2019-04-11T09:49:57.980Z,16.76
2019-04-11T09:51:18.126Z,16.76
2019-04-11T09:52:29.034Z,16.77
2019-04-11T09:53:31.559Z,16.76
2019-04-11T09:54:59.523Z,16.78
2019-04-11T09:56:20.575Z,16.76
2019-04-11T09:57:29.659Z,16.76
2019-04-11T09:58:31.895Z,16.77
2019-04-11T09:59:41.132Z,16.77
2019-04-11T10:01:01.665Z,16.78
2019-04-11T10:02:28.740Z,16.77
2019-04-11T10:03:32.087Z,16.77
2019-04-11T10:04:35.954Z,16.76
2019-04-11T10:05:46.946Z,16.78
2019-04-11T10:07:17.623Z,16.78
2019-04-11T10:08:28.062Z,16.77
2019-04-11T10:09:44.164Z,16.78
2019-04-11T10:11:04.122Z,16.77
2019-04-11T10:12:24.308Z,16.77
2019-04-11T10:13:45.307Z,16.78
2019-04-11T10:14:50.151Z,16.77
2019-04-11T10:16:10.071Z,16.76
2019-04-11T10:17:40.487Z,16.78
2019-04-11T10:18:59.840Z,16.76
2019-04-11T10:20:06.474Z,16.78
2019-04-11T10:21:09.106Z,16.77
2019-04-11T10:22:40.384Z,16.77
2019-04-11T10:24:09.649Z,16.78
2019-04-11T10:25:32.047Z,16.78
2019-04-11T10:26:38.244Z,16.79
2019-04-11T10:27:53.108Z,16.79
2019-04-11T10:29:14.954Z,16.79
2019-04-11T10:30:39.899Z,16.79
2019-04-11T10:31:44.361Z,16.79
2019-04-11T10:32:49.933Z,16.79
2019-04-11T10:34:14.226Z,16.79
2019-04-11T10:35:44.471Z,16.79
2019-04-11T10:37:03.636Z,16.79
2019-04-11T10:38:06.799Z,16.79
2019-04-11T10:39:29.078Z,16.79
2019-04-11T10:40:50.359Z,16.79
2019-04-11T10:41:55.938Z,16.80
2019-04-11T10:42:58.161Z,16.80
2019-04-11T10:44:01.329Z,16.79
2019-04-11T10:45:26.746Z,16.79
2019-04-11T10:46:51.477Z,16.80
2019-04-11T10:47:56.074Z,16.79
2019-04-11T10:49:05.717Z,16.79
2019-04-11T10:50:36.444Z,16.80
2019-04-11T10:52:04.488Z,16.79
2019-04-11T10:53:06.901Z,16.79
2019-04-11T10:54:09.095Z,16.80
2019-04-11T10:55:33.614Z,16.79
2019-04-11T10:56:53.672Z,16.80
2019-04-11T10:58:08.822Z,16.80
2019-04-11T10:59:13.551Z,16.79
2019-04-11T11:00:23.612Z,16.79
2019-04-11T11:01:44.780Z,16.80
2019-04-11T11:03:07.706Z,16.80
2019-04-11T11:04:13.805Z,16.79
2019-04-11T11:05:17.952Z,16.80
2019-04-11T11:06:23.887Z,16.80
2019-04-11T11:07:28.779Z,16.79
2019-04-11T11:08:58.567Z,16.80
2019-04-11T11:10:04.144Z,16.79
2019-04-11T11:11:15.870Z,16.79
2019-04-11T11:12:45.821Z,16.79
2019-04-11T11:14:07.255Z,16.79
2019-04-11T11:15:15.643Z,16.79
2019-04-11T11:16:20.242Z,16.79
2019-04-11T11:17:54.978Z,16.79
2019-04-11T11:19:33.710Z,16.79
2019-04-11T11:20:38.508Z,16.80
2019-04-11T11:21:38.743Z,16.78
2019-04-11T11:23:00.164Z,16.79
2019-04-11T11:24:33.786Z,16.79
2019-04-11T11:25:48.501Z,16.79
2019-04-11T11:26:54.529Z,16.79
2019-04-11T11:27:54.180Z,16.80
2019-04-11T11:29:21.699Z,16.79
2019-04-11T11:30:41.996Z,16.79
2019-04-11T11:32:05.297Z,16.79
2019-04-11T11:33:07.867Z,16.79
2019-04-11T11:34:20.345Z,16.79
2019-04-11T11:35:54.051Z,16.79
2019-04-11T11:37:15.850Z,16.78
2019-04-11T11:38:22.038Z,16.79
2019-04-11T11:39:52.082Z,16.78
2019-04-11T11:41:12.226Z,16.79
2019-04-11T11:42:48.874Z,16.79
2019-04-11T11:43:51.694Z,16.79
2019-04-11T11:44:57.295Z,16.79
2019-04-11T11:46:17.794Z,16.79
2019-04-11T11:47:40.360Z,16.79
2019-04-11T11:48:52.243Z,16.79
2019-04-11T11:49:58.593Z,16.79
2019-04-11T11:50:57.230Z,16.79
2019-04-11T11:52:33.354Z,16.79
2019-04-11T11:53:53.202Z,16.79
2019-04-11T11:54:56.344Z,16.79
2019-04-11T11:55:59.878Z,16.79
2019-04-11T11:57:06.641Z,16.79
2019-04-11T11:58:27.825Z,16.79
2019-04-11T11:59:42.838Z,16.80
2019-04-11T12:00:46.396Z,16.80
2019-04-11T12:01:52.795Z,16.79
2019-04-11T12:03:26.460Z,16.79
2019-04-11T12:05:07.876Z,16.80
2019-04-11T12:06:09.628Z,16.79
2019-04-11T12:07:14.597Z,16.80
2019-04-11T12:08:35.045Z,16.80
2019-04-11T12:10:11.387Z,16.80
2019-04-11T12:11:15.710Z,16.80
2019-04-11T12:12:22.557Z,16.80
2019-04-11T12:13:43.752Z,16.80
2019-04-11T12:15:17.253Z,16.80
2019-04-11T12:16:21.931Z,16.81
2019-04-11T12:17:42.809Z,16.80
2019-04-11T12:18:54.234Z,16.80
2019-04-11T12:20:08.912Z,16.80
2019-04-11T12:21:08.038Z,16.81
2019-04-11T12:22:12.386Z,16.79
2019-04-11T12:23:46.545Z,16.80
2019-04-11T12:24:44.929Z,16.80
2019-04-11T12:25:47.430Z,16.80
2019-04-11T12:27:06.495Z,16.80
2019-04-11T12:28:38.444Z,16.80
2019-04-11T12:29:59.599Z,16.80
2019-04-11T12:31:09.232Z,16.81
2019-04-11T12:32:14.725Z,16.80
2019-04-11T12:33:45.778Z,16.81
2019-04-11T12:34:57.771Z,16.80
2019-04-11T12:36:14.964Z,16.80
2019-04-11T12:37:23.281Z,16.81
2019-04-11T12:38:47.216Z,16.81
2019-04-11T12:40:09.503Z,16.80
2019-04-11T12:41:26.651Z,16.80
2019-04-11T12:42:32.115Z,16.81
2019-04-11T12:43:51.923Z,16.80
2019-04-11T12:45:11.741Z,16.80
2019-04-11T12:46:51.094Z,16.80
2019-04-11T12:47:56.289Z,16.80
2019-04-11T12:49:04.393Z,16.81
2019-04-11T12:50:31.572Z,16.80
2019-04-11T12:51:51.560Z,16.79
2019-04-11T12:52:59.720Z,16.80
2019-04-11T12:54:02.165Z,16.79
2019-04-11T12:55:04.852Z,16.80
2019-04-11T12:56:32.136Z,16.80
2019-04-11T12:57:52.274Z,16.79
2019-04-11T12:59:06.736Z,16.79
2019-04-11T13:00:17.578Z,16.79
2019-04-11T13:01:44.755Z,16.79
2019-04-11T13:03:04.860Z,16.78
2019-04-11T13:04:29.110Z,16.79
2019-04-11T13:05:31.316Z,16.80
2019-04-11T13:06:52.454Z,16.79
2019-04-11T13:08:24.090Z,16.79
2019-04-11T13:09:46.008Z,16.79
2019-04-11T13:10:47.985Z,16.79
2019-04-11T13:11:51.029Z,16.82
2019-04-11T13:13:24.129Z,16.87
2019-04-11T13:15:03.525Z,16.90
2019-04-11T13:16:12.433Z,16.92
2019-04-11T13:17:19.352Z,16.95
2019-04-11T13:18:46.427Z,16.96
2019-04-11T13:20:07.614Z,17.03
2019-04-11T13:21:19.246Z,17.02
2019-04-11T13:22:23.655Z,16.99
2019-04-11T13:23:44.795Z,17.00
2019-04-11T13:25:07.100Z,16.99
2019-04-11T13:26:46.766Z,16.99
2019-04-11T13:27:52.554Z,16.99
2019-04-11T13:29:06.800Z,16.99
2019-04-11T13:30:40.029Z,17.00
2019-04-11T13:32:00.084Z,17.01
2019-04-11T13:33:05.807Z,17.00
2019-04-11T13:34:11.957Z,17.01
2019-04-11T13:35:20.651Z,17.01
2019-04-11T13:36:39.423Z,17.02
2019-04-11T13:38:00.329Z,17.01
2019-04-11T13:39:06.301Z,17.02
2019-04-11T13:40:37.112Z,17.01
2019-04-11T13:41:59.130Z,17.04
2019-04-11T13:43:29.623Z,17.07
2019-04-11T13:44:35.576Z,17.06
2019-04-11T13:45:51.792Z,17.05
2019-04-11T13:47:29.846Z,17.04
2019-04-11T13:48:53.249Z,17.05
2019-04-11T13:50:04.193Z,17.06
2019-04-11T13:51:18.543Z,17.05
2019-04-11T13:52:43.247Z,17.07
2019-04-11T13:54:06.848Z,17.06
2019-04-11T13:55:23.912Z,17.07
2019-04-11T13:56:40.096Z,17.09
2019-04-11T13:58:04.867Z,17.09
2019-04-11T13:59:28.019Z,17.09
2019-04-11T14:01:05.517Z,17.11
2019-04-11T14:02:21.524Z,17.16
2019-04-11T14:03:48.835Z,17.22
2019-04-11T14:04:51.022Z,17.24
2019-04-11T14:05:53.297Z,17.18
2019-04-11T14:06:55.542Z,17.16
2019-04-11T14:07:57.947Z,17.15
2019-04-11T14:09:25.438Z,17.13
2019-04-11T14:10:31.489Z,17.12
2019-04-11T14:11:33.641Z,17.12
2019-04-11T14:12:35.398Z,17.13
2019-04-11T14:13:42.044Z,17.16
2019-04-11T14:15:05.980Z,17.19
2019-04-11T14:16:11.653Z,17.18
2019-04-11T14:17:35.853Z,17.17
2019-04-11T14:18:57.990Z,17.17
2019-04-11T14:20:29.000Z,17.16
2019-04-11T14:21:25.104Z,17.13
2019-04-11T14:22:30.530Z,17.11
2019-04-11T14:23:41.905Z,17.10
2019-04-11T14:25:18.988Z,17.06
2019-04-11T14:26:40.151Z,17.06
2019-04-11T14:27:42.829Z,17.02
2019-04-11T14:28:51.030Z,17.01
2019-04-11T14:30:11.210Z,17.01
2019-04-11T14:31:31.255Z,17.00
2019-04-11T14:32:34.730Z,16.98
2019-04-11T14:33:38.288Z,16.99
2019-04-11T14:35:08.354Z,16.99
2019-04-11T14:36:33.564Z,16.97
2019-04-11T14:37:50.938Z,16.98
2019-04-11T14:38:53.754Z,16.97
2019-04-11T14:40:04.624Z,16.97
2019-04-11T14:41:28.778Z,16.97
2019-04-11T14:43:03.777Z,16.97
2019-04-11T14:44:05.704Z,16.97
2019-04-11T14:45:16.739Z,16.96
2019-04-11T14:46:37.269Z,16.96
2019-04-11T14:47:57.509Z,16.96
2019-04-11T14:49:10.141Z,16.96
2019-04-11T14:50:11.184Z,16.96
2019-04-11T14:51:31.964Z,16.96
2019-04-11T14:53:02.328Z,16.95
2019-04-11T14:54:07.805Z,16.96
2019-04-11T14:55:10.024Z,16.95
2019-04-11T14:56:12.244Z,16.94
2019-04-11T14:57:31.504Z,16.94
2019-04-11T14:59:11.376Z,16.94
2019-04-11T15:00:19.505Z,16.96
2019-04-11T15:01:23.672Z,16.94
2019-04-11T15:02:37.539Z,16.94
2019-04-11T15:04:13.375Z,16.94
2019-04-11T15:05:49.314Z,16.94
2019-04-11T15:06:52.622Z,16.94
2019-04-11T15:07:55.290Z,16.94
2019-04-11T15:09:19.415Z,16.94
2019-04-11T15:10:49.684Z,16.98
2019-04-11T15:12:10.858Z,17.02
2019-04-11T15:13:15.742Z,17.04
2019-04-11T15:14:37.799Z,17.06